Time;durP1;ratioP1;P1;durP2;ratioP2;P2;SDS_P1;SDS_P2;PMS_P1;PMS_P2;Temp;Humidity;BMP_temperature;BMP_pressure;BME280_temperature;BME280_humidity;BME280_pressure;Samples;Min_cycle;Max_cycle;Signal;HPM_P1;HPM_P2
2021/06/12 00:02:15;;;;;;;;;1.00;1.00;;;;;23.16;57.46;101844.16;4990110;28;45336;-74
2021/06/12 00:04:40;;;;;;;;;1.75;1.75;;;;;23.19;57.64;101851.13;4976627;28;45411;-74
2021/06/12 00:07:05;;;;;;;;;1.00;0.75;;;;;23.15;57.27;101844.28;4974559;28;45664;-74
2021/06/12 00:09:31;;;;;;;;;1.00;1.00;;;;;23.10;57.42;101843.81;4974552;28;46328;-75
2021/06/12 00:11:56;;;;;;;;;2.25;1.75;;;;;23.06;57.48;101845.84;4973995;28;45562;-74
2021/06/12 00:14:22;;;;;;;;;2.50;1.25;;;;;23.03;58.15;101848.81;4974874;28;46040;-74
2021/06/12 00:16:48;;;;;;;;;2.25;1.00;;;;;23.03;58.06;101862.19;4976341;28;45719;-74
2021/06/12 00:19:13;;;;;;;;;2.00;2.00;;;;;23.01;58.15;101857.91;4974584;28;45459;-74
2021/06/12 00:21:39;;;;;;;;;2.25;1.00;;;;;23.00;58.50;101862.44;4972236;28;46261;-75
2021/06/12 00:24:07;;;;;;;;;1.75;1.75;;;;;23.00;58.83;101865.09;4975237;28;47095;-74
2021/06/12 00:26:32;;;;;;;;;1.50;1.50;;;;;23.02;57.88;101871.22;4974341;28;45780;-74
2021/06/12 00:28:58;;;;;;;;;2.25;1.75;;;;;23.03;58.48;101872.06;4975983;28;45308;-74
2021/06/12 00:31:23;;;;;;;;;1.00;1.00;;;;;23.05;57.86;101862.94;4974158;28;45461;-75
2021/06/12 00:33:48;;;;;;;;;1.00;1.00;;;;;23.05;58.00;101856.72;4974071;28;45594;-75
2021/06/12 00:36:14;;;;;;;;;3.00;1.25;;;;;23.07;57.82;101868.16;4973609;28;46299;-75
2021/06/12 00:38:39;;;;;;;;;2.00;1.25;;;;;23.08;58.55;101872.56;4973214;28;45408;-75
2021/06/12 00:41:08;;;;;;;;;2.25;1.50;;;;;23.09;58.46;101874.28;4973903;28;45672;-75
2021/06/12 00:43:34;;;;;;;;;1.00;1.00;;;;;23.10;59.01;101879.50;4969444;28;45369;-76
2021/06/12 00:46:00;;;;;;;;;1.50;1.50;;;;;23.09;58.88;101874.28;4972828;28;45474;-76
2021/06/12 00:48:27;;;;;;;;;1.75;1.75;;;;;23.14;59.06;101882.81;4974470;28;45437;-75
2021/06/12 00:50:54;;;;;;;;;2.75;2.00;;;;;23.16;59.11;101879.03;4974081;28;45534;-75
2021/06/12 00:53:36;;;;;;;;;1.75;1.75;;;;;23.20;58.86;101879.66;4973456;28;47260;-76
2021/06/12 00:56:05;;;;;;;;;3.00;3.00;;;;;23.21;59.31;101880.50;4976408;28;45518;-76
2021/06/12 00:58:32;;;;;;;;;3.50;1.50;;;;;23.27;59.02;101882.69;4974633;28;45643;-76
2021/06/12 01:00:57;;;;;;;;;3.00;2.00;;;;;23.26;58.74;101881.84;4973306;28;45560;-76
2021/06/12 01:03:27;;;;;;;;;4.50;2.50;;;;;23.24;58.71;101866.88;4973532;28;45469;-76
2021/06/12 01:05:52;;;;;;;;;3.25;2.75;;;;;23.22;59.30;101869.66;4976330;28;45650;-76
2021/06/12 01:08:17;;;;;;;;;2.75;2.75;;;;;23.19;59.38;101877.94;4973703;28;45524;-76
2021/06/12 01:10:43;;;;;;;;;3.00;3.00;;;;;23.12;59.21;101876.69;4975282;28;45399;-76
2021/06/12 01:13:19;;;;;;;;;2.00;2.00;;;;;23.06;59.49;101874.50;4971605;28;46083;-76
2021/06/12 01:15:52;;;;;;;;;2.75;2.25;;;;;22.96;59.37;101863.63;4972670;28;45679;-76
2021/06/12 01:18:20;;;;;;;;;3.25;3.25;;;;;22.89;59.57;101863.25;4968275;28;45537;-75
2021/06/12 01:20:54;;;;;;;;;4.00;2.25;;;;;22.80;59.97;101868.44;4972991;28;45598;-75
2021/06/12 01:23:55;;;;;;;;;3.75;3.75;;;;;22.73;59.92;101868.06;4973883;28;45852;-75
2021/06/12 01:26:42;;;;;;;;;2.25;2.25;;;;;22.63;60.10;101856.34;4972210;28;45306;-75
2021/06/12 01:29:35;;;;;;;;;2.50;2.50;;;;;22.57;60.21;101857.66;4973652;28;45458;-75
2021/06/12 01:32:02;;;;;;;;;2.50;2.00;;;;;22.52;60.51;101861.66;4974314;28;45466;-75
2021/06/12 01:34:29;;;;;;;;;1.50;1.50;;;;;22.47;60.57;101853.97;4974659;28;46940;-75
2021/06/12 01:36:57;;;;;;;;;3.50;2.00;;;;;22.44;60.56;101850.66;4973694;28;45754;-76
2021/06/12 01:39:26;;;;;;;;;1.50;1.50;;;;;22.39;60.91;101859.03;4973427;28;45478;-75
2021/06/12 01:41:55;;;;;;;;;2.50;2.00;;;;;22.33;61.07;101860.34;4973319;28;45741;-75
2021/06/12 01:44:20;;;;;;;;;1.50;1.50;;;;;22.24;61.79;101847.66;4971295;28;46350;-75
2021/06/12 01:46:48;;;;;;;;;2.00;2.00;;;;;22.23;61.09;101851.28;4973773;28;45634;-75
2021/06/12 01:49:18;;;;;;;;;4.50;3.50;;;;;22.19;61.53;101857.00;4970854;28;45629;-75
2021/06/12 01:51:44;;;;;;;;;5.00;2.50;;;;;22.14;61.63;101862.69;4970948;28;45343;-75
2021/06/12 01:54:10;;;;;;;;;4.50;3.25;;;;;22.10;61.95;101862.06;4974806;28;45671;-75
2021/06/12 01:56:38;;;;;;;;;2.75;2.00;;;;;22.08;62.33;101863.09;4974613;28;45483;-76
2021/06/12 01:59:04;;;;;;;;;1.25;1.25;;;;;22.03;62.66;101865.25;4975445;28;45308;-75
2021/06/12 02:01:33;;;;;;;;;4.25;3.00;;;;;21.96;62.71;101854.16;4976242;28;45403;-75
2021/06/12 02:04:01;;;;;;;;;3.00;2.00;;;;;21.95;62.51;101864.97;4976583;28;45668;-75
2021/06/12 02:06:29;;;;;;;;;4.25;1.25;;;;;21.89;62.93;101861.78;4976234;28;45446;-75
2021/06/12 02:08:55;;;;;;;;;2.50;2.50;;;;;21.85;62.58;101864.78;4976354;28;45446;-74
2021/06/12 02:11:21;;;;;;;;;3.00;3.00;;;;;21.82;62.52;101857.84;4976606;28;45408;-75
2021/06/12 02:13:48;;;;;;;;;2.00;2.00;;;;;21.81;62.65;101864.16;4992277;28;46645;-75
2021/06/12 02:16:15;;;;;;;;;3.25;3.25;;;;;21.79;62.60;101865.25;4974753;28;45866;-75
2021/06/12 02:18:44;;;;;;;;;3.75;3.00;;;;;21.78;62.63;101869.75;4976421;28;45343;-74
2021/06/12 02:21:11;;;;;;;;;4.00;3.00;;;;;21.75;63.17;101867.28;4972645;28;45414;-75
2021/06/12 02:23:37;;;;;;;;;2.75;2.75;;;;;21.73;62.95;101873.72;4975269;28;46199;-75
2021/06/12 02:26:05;;;;;;;;;2.75;2.75;;;;;21.68;63.08;101876.72;4976948;28;45542;-75
2021/06/12 02:28:35;;;;;;;;;2.50;2.00;;;;;21.63;63.53;101879.72;4977774;28;45469;-74
2021/06/12 02:31:08;;;;;;;;;5.00;3.75;;;;;21.60;63.46;101877.25;4976961;28;45759;-75
2021/06/12 02:33:36;;;;;;;;;4.25;2.50;;;;;21.56;63.47;101883.81;4975584;28;45486;-75
2021/06/12 02:36:03;;;;;;;;;3.25;3.00;;;;;21.54;63.36;101884.88;4976175;28;45550;-76
2021/06/12 02:38:29;;;;;;;;;3.00;3.00;;;;;21.51;63.61;101893.13;4976665;28;49641;-75
2021/06/12 02:40:56;;;;;;;;;2.50;2.50;;;;;21.47;63.29;101895.16;4976698;28;45597;-75
2021/06/12 02:43:22;;;;;;;;;3.25;2.75;;;;;21.40;63.54;101883.16;4976789;28;45692;-75
2021/06/12 02:45:47;;;;;;;;;2.00;2.00;;;;;21.42;63.35;101894.63;4975602;28;45584;-75
2021/06/12 02:48:16;;;;;;;;;5.00;2.50;;;;;21.38;63.53;101892.25;4975889;28;45378;-74
2021/06/12 02:50:43;;;;;;;;;3.00;2.00;;;;;21.35;63.36;101887.97;4975515;28;45386;-75
2021/06/12 02:53:11;;;;;;;;;2.25;2.25;;;;;21.32;63.42;101883.69;4977226;28;46452;-75
2021/06/12 02:55:40;;;;;;;;;1.75;1.75;;;;;21.29;62.98;101891.88;4975777;28;45779;-75
2021/06/12 02:58:08;;;;;;;;;2.75;1.00;;;;;21.25;63.40;101889.56;4975833;28;45472;-75
2021/06/12 03:00:35;;;;;;;;;2.00;2.00;;;;;21.23;63.44;101886.13;4975755;28;46728;-75
2021/06/12 03:03:01;;;;;;;;;3.25;2.25;;;;;21.18;62.55;101882.91;4975206;28;46441;-75
2021/06/12 03:05:29;;;;;;;;;1.25;1.25;;;;;21.16;62.56;101884.84;4975069;28;45840;-75
2021/06/12 03:07:57;;;;;;;;;2.25;2.00;;;;;21.14;62.92;101874.25;4976609;28;45395;-75
2021/06/12 03:10:25;;;;;;;;;2.25;1.00;;;;;21.12;62.39;101878.84;4976876;28;45431;-74
2021/06/12 03:12:51;;;;;;;;;1.00;1.00;;;;;21.09;61.58;101873.75;4976165;28;45499;-74
2021/06/12 03:15:18;;;;;;;;;1.00;1.00;;;;;21.07;62.06;101873.81;4974647;28;45505;-75
2021/06/12 03:17:45;;;;;;;;;2.00;2.00;;;;;21.05;62.07;101865.06;4975835;28;45327;-74
2021/06/12 03:20:13;;;;;;;;;1.00;1.00;;;;;21.01;61.99;101868.06;4975155;28;45536;-75
2021/06/12 03:22:40;;;;;;;;;2.00;1.00;;;;;21.00;61.89;101866.34;4977022;28;45491;-75
2021/06/12 03:25:07;;;;;;;;;1.00;1.00;;;;;20.97;61.70;101864.72;4974997;28;45461;-75
2021/06/12 03:27:33;;;;;;;;;0.00;0.00;;;;;20.96;61.79;101868.38;4975555;28;45450;-75
2021/06/12 03:29:59;;;;;;;;;2.00;1.00;;;;;20.94;62.13;101869.44;4974748;28;45521;-73
2021/06/12 03:32:26;;;;;;;;;1.00;1.00;;;;;20.93;62.16;101876.56;4974946;28;46839;-75
2021/06/12 03:34:52;;;;;;;;;2.00;1.00;;;;;20.89;62.08;101880.44;4976579;28;45556;-75
2021/06/12 03:37:18;;;;;;;;;1.00;1.00;;;;;20.86;62.22;101880.63;4974985;28;45380;-75
2021/06/12 03:39:44;;;;;;;;;2.25;0.50;;;;;20.77;61.91;101859.88;4974909;28;45480;-75
2021/06/12 03:42:10;;;;;;;;;2.00;0.50;;;;;20.78;62.55;101872.31;4975057;28;46785;-75
2021/06/12 03:44:37;;;;;;;;;1.00;1.00;;;;;20.75;62.41;101877.84;4975211;28;45524;-75
2021/06/12 03:47:05;;;;;;;;;0.25;0.25;;;;;20.72;61.86;101884.25;4974525;28;45281;-74
2021/06/12 03:49:31;;;;;;;;;1.25;1.25;;;;;20.70;62.53;101885.31;4976154;28;45464;-75
2021/06/12 03:51:57;;;;;;;;;1.00;1.00;;;;;20.70;62.12;101893.31;4974478;28;45836;-75
2021/06/12 03:54:23;;;;;;;;;1.00;0.25;;;;;20.69;61.73;101889.81;4975039;28;45704;-75
2021/06/12 03:56:49;;;;;;;;;0.00;0.00;;;;;20.63;61.47;101873.34;4975216;28;45503;-75
2021/06/12 03:59:15;;;;;;;;;0.50;0.50;;;;;20.67;61.82;101885.50;4975185;28;47343;-75
2021/06/12 04:01:41;;;;;;;;;1.00;1.00;;;;;20.65;61.52;101890.97;4975543;28;45427;-74
2021/06/12 04:04:06;;;;;;;;;0.00;0.00;;;;;20.62;62.15;101898.31;4974243;28;45417;-75
2021/06/12 04:06:32;;;;;;;;;0.75;0.75;;;;;20.58;61.51;101905.69;4973349;28;45601;-75
2021/06/12 04:08:57;;;;;;;;;0.50;0.50;;;;;20.57;62.27;101898.66;4973028;28;45495;-74
2021/06/12 04:11:23;;;;;;;;;0.25;0.25;;;;;20.55;62.19;101906.75;4974505;28;46630;-75
2021/06/12 04:13:48;;;;;;;;;0.00;0.00;;;;;20.58;62.02;101911.91;4976347;28;45296;-73
2021/06/12 04:16:13;;;;;;;;;0.75;0.75;;;;;20.59;61.93;101915.41;4973216;28;45438;-75
2021/06/12 04:18:39;;;;;;;;;0.00;0.00;;;;;20.63;61.94;101908.91;4975014;28;46026;-75
2021/06/12 04:21:05;;;;;;;;;0.75;0.75;;;;;20.66;62.15;101902.50;4973828;28;46445;-76
2021/06/12 04:23:31;;;;;;;;;1.00;0.00;;;;;20.70;62.30;101901.34;4974195;28;45486;-76
2021/06/12 04:25:57;;;;;;;;;2.00;0.50;;;;;20.79;61.53;101904.25;4976058;28;45489;-76
2021/06/12 04:28:22;;;;;;;;;1.00;1.00;;;;;20.80;61.62;101903.28;4975092;28;45441;-75
2021/06/12 04:30:49;;;;;;;;;0.25;0.00;;;;;20.80;62.08;101907.78;4973718;28;46472;-76
2021/06/12 04:33:15;;;;;;;;;1.00;1.00;;;;;20.74;62.24;101902.84;4973890;28;45826;-75
2021/06/12 04:35:40;;;;;;;;;0.50;0.50;;;;;20.78;62.20;101902.56;4975468;28;45489;-75
2021/06/12 04:38:05;;;;;;;;;0.00;0.00;;;;;20.79;62.04;101909.59;4975085;28;45459;-75
2021/06/12 04:40:34;;;;;;;;;0.75;0.75;;;;;20.82;62.18;101911.19;4975985;28;45414;-75
2021/06/12 04:43:00;;;;;;;;;0.75;0.75;;;;;20.84;62.02;101903.94;4974238;28;45496;-75
2021/06/12 04:45:25;;;;;;;;;0.50;0.50;;;;;20.85;61.96;101909.19;4973537;28;45568;-75
2021/06/12 04:47:51;;;;;;;;;0.50;0.50;;;;;20.88;61.64;101910.81;4974343;28;45400;-75
2021/06/12 04:50:17;;;;;;;;;0.75;0.75;;;;;20.88;62.32;101912.59;4974117;28;46554;-75
2021/06/12 04:52:43;;;;;;;;;1.50;1.50;;;;;20.90;61.76;101914.22;4975346;28;45628;-75
2021/06/12 04:55:09;;;;;;;;;1.00;1.00;;;;;20.93;61.73;101907.78;4973695;28;45459;-75
2021/06/12 04:57:36;;;;;;;;;2.00;0.50;;;;;20.93;61.87;101911.31;4974090;28;45538;-75
2021/06/12 05:00:07;;;;;;;;;0.50;0.50;;;;;20.99;62.33;101916.28;4973887;28;46027;-75
2021/06/12 05:02:33;;;;;;;;;1.00;1.00;;;;;21.02;61.88;101917.88;4973386;28;45498;-75
2021/06/12 05:04:58;;;;;;;;;0.25;0.25;;;;;21.05;62.01;101921.19;4973667;28;45555;-75
2021/06/12 05:07:23;;;;;;;;;0.50;0.00;;;;;21.07;61.78;101932.63;4974170;28;45716;-75
2021/06/12 05:09:48;;;;;;;;;1.00;1.00;;;;;21.07;61.87;101923.75;4973707;28;49988;-76
2021/06/12 05:12:14;;;;;;;;;1.00;1.00;;;;;21.05;61.24;101918.53;4973139;28;45548;-75
2021/06/12 05:14:39;;;;;;;;;1.00;1.00;;;;;21.08;61.48;101922.78;4973187;28;45479;-75
2021/06/12 05:17:08;;;;;;;;;1.00;1.00;;;;;21.09;61.18;101930.72;4974580;28;45486;-75
2021/06/12 05:19:33;;;;;;;;;0.00;0.00;;;;;21.07;61.28;101921.09;4974681;28;47609;-75
2021/06/12 05:21:59;;;;;;;;;0.25;0.00;;;;;21.13;61.33;101926.00;4972097;28;45418;-76
2021/06/12 05:24:24;;;;;;;;;2.00;1.00;;;;;21.18;61.33;101931.03;4973483;28;45492;-75
2021/06/12 05:26:50;;;;;;;;;1.50;1.00;;;;;21.19;60.77;101924.72;4973178;28;45464;-75
2021/06/12 05:29:16;;;;;;;;;2.00;0.50;;;;;21.20;60.70;101924.63;4973014;28;45435;-74
2021/06/12 05:31:41;;;;;;;;;0.75;0.75;;;;;21.29;60.83;101928.47;4974671;28;45293;-75
2021/06/12 05:34:06;;;;;;;;;2.50;1.75;;;;;21.38;61.15;101933.22;4972979;28;49367;-76
2021/06/12 05:36:32;;;;;;;;;0.00;0.00;;;;;21.47;61.09;101934.41;4972877;28;45441;-75
2021/06/12 05:38:57;;;;;;;;;1.00;1.00;;;;;21.58;60.38;101930.00;4973200;28;46614;-75
2021/06/12 05:41:23;;;;;;;;;1.00;1.00;;;;;21.72;60.86;101928.19;4973405;28;45386;-75
2021/06/12 05:43:49;;;;;;;;;1.00;1.00;;;;;21.98;59.76;101923.63;4974699;28;45404;-75
2021/06/12 05:46:14;;;;;;;;;2.00;2.00;;;;;22.64;59.27;101915.16;4972685;28;45571;-75
2021/06/12 05:48:39;;;;;;;;;1.00;1.00;;;;;23.59;57.66;101905.16;4972401;28;46560;-76
2021/06/12 05:51:05;;;;;;;;;1.00;1.00;;;;;24.67;56.79;101914.28;4973898;28;45444;-75
2021/06/12 05:53:30;;;;;;;;;1.00;1.00;;;;;25.76;54.78;101913.00;4973915;28;45586;-75
2021/06/12 05:55:56;;;;;;;;;1.00;1.00;;;;;26.72;52.55;101924.97;4974027;28;45408;-75
2021/06/12 05:58:21;;;;;;;;;0.25;0.25;;;;;27.27;51.00;101917.13;4972589;28;45701;-75
2021/06/12 06:00:46;;;;;;;;;1.00;1.00;;;;;27.37;49.92;101925.19;4973051;28;45315;-75
2021/06/12 06:03:12;;;;;;;;;0.75;0.75;;;;;27.20;49.82;101921.38;4972690;28;45692;-76
2021/06/12 06:05:38;;;;;;;;;1.00;1.00;;;;;27.19;49.74;101933.19;4972595;28;45534;-75
2021/06/12 06:08:04;;;;;;;;;1.00;1.00;;;;;27.10;49.69;101932.22;4973077;28;45544;-75
2021/06/12 06:10:29;;;;;;;;;1.00;0.50;;;;;26.92;49.89;101933.91;4973840;28;45425;-76
2021/06/12 06:13:00;;;;;;;;;2.00;2.00;;;;;26.81;49.72;101926.81;4973316;28;45376;-76
2021/06/12 06:15:25;;;;;;;;;1.00;1.00;;;;;26.60;49.60;101926.97;4971722;28;45561;-75
2021/06/12 06:17:51;;;;;;;;;1.50;1.50;;;;;26.34;49.96;101937.41;4972651;28;45504;-75
2021/06/12 06:20:16;;;;;;;;;2.75;1.50;;;;;26.01;50.00;101928.69;4972958;28;49006;-76
2021/06/12 06:22:41;;;;;;;;;2.00;1.00;;;;;25.76;50.37;101931.84;4974520;28;45567;-76
2021/06/12 06:25:07;;;;;;;;;2.00;1.00;;;;;25.57;50.53;101937.13;4973781;28;45493;-76
2021/06/12 06:27:34;;;;;;;;;2.75;0.25;;;;;25.40;51.13;101944.81;4971869;28;45828;-75
2021/06/12 06:29:59;;;;;;;;;0.50;0.50;;;;;25.25;51.62;101940.75;4973132;28;45523;-76
2021/06/12 06:32:24;;;;;;;;;2.50;2.50;;;;;25.11;51.27;101933.91;4972723;28;45466;-76
2021/06/12 06:34:50;;;;;;;;;2.75;2.00;;;;;25.02;51.46;101937.34;4973665;28;45485;-76
2021/06/12 06:37:15;;;;;;;;;2.00;2.00;;;;;24.97;51.57;101936.88;4972151;28;45515;-76
2021/06/12 06:39:40;;;;;;;;;2.50;2.00;;;;;24.91;52.12;101943.63;4973857;28;45498;-76
2021/06/12 06:42:06;;;;;;;;;1.25;1.25;;;;;24.85;52.40;101944.16;4975777;28;47656;-76
2021/06/12 06:44:35;;;;;;;;;3.00;3.00;;;;;24.86;52.22;101951.22;4976702;28;45479;-76
2021/06/12 06:47:01;;;;;;;;;3.00;2.00;;;;;24.88;51.70;101954.63;4976563;28;45608;-76
2021/06/12 06:49:27;;;;;;;;;2.75;1.25;;;;;24.90;51.61;101950.00;4976201;28;45455;-76
2021/06/12 06:51:52;;;;;;;;;2.00;2.00;;;;;24.94;52.31;101947.88;4976160;28;45515;-76
2021/06/12 06:54:17;;;;;;;;;2.00;2.00;;;;;24.93;51.76;101940.78;4975672;28;47803;-76
2021/06/12 06:56:42;;;;;;;;;1.25;1.25;;;;;24.93;51.78;101935.41;4975856;28;46125;-76
2021/06/12 06:59:08;;;;;;;;;2.00;1.00;;;;;24.99;52.10;101943.81;4976264;28;45573;-76
2021/06/12 07:01:36;;;;;;;;;2.00;2.00;;;;;24.98;52.19;101952.88;4977418;28;45414;-75
2021/06/12 07:04:02;;;;;;;;;3.00;2.00;;;;;25.03;52.64;101949.78;4976020;28;45504;-76
2021/06/12 07:06:27;;;;;;;;;3.00;2.00;;;;;25.04;51.97;101942.56;4975722;28;46305;-76
2021/06/12 07:08:52;;;;;;;;;2.75;2.75;;;;;25.14;51.64;101948.91;4975430;28;45555;-75
2021/06/12 07:11:17;;;;;;;;;2.25;1.75;;;;;25.23;52.40;101962.44;4975701;28;45587;-75
2021/06/12 07:13:43;;;;;;;;;3.50;2.25;;;;;25.29;51.16;101957.50;4976767;28;45387;-76
2021/06/12 07:16:08;;;;;;;;;2.00;2.00;;;;;25.30;51.23;101953.81;4973799;28;52502;-76
2021/06/12 07:18:33;;;;;;;;;3.00;1.75;;;;;25.30;51.72;101953.81;4973334;28;45346;-75
2021/06/12 07:20:59;;;;;;;;;2.25;2.25;;;;;25.30;51.83;101967.28;4974354;28;45367;-75
2021/06/12 07:23:24;;;;;;;;;2.00;2.00;;;;;25.29;51.30;101957.50;4974115;28;45542;-77
2021/06/12 07:25:49;;;;;;;;;2.00;2.00;;;;;25.36;51.21;101962.22;4976049;28;48539;-78
2021/06/12 07:28:15;;;;;;;;;2.25;2.25;;;;;25.49;51.60;101968.25;4974974;28;46598;-78
2021/06/12 07:30:42;;;;;;;;;1.75;1.50;;;;;25.72;51.10;101974.31;4975045;28;45470;-74
2021/06/12 07:33:12;;;;;;;;;3.25;2.00;;;;;25.92;51.24;101977.97;4975382;28;45482;-76
2021/06/12 07:35:38;;;;;;;;;3.00;2.00;;;;;26.29;50.39;101977.38;4975116;28;46425;-75
2021/06/12 07:38:04;;;;;;;;;3.00;2.75;;;;;26.61;50.02;101979.88;4976215;28;45445;-75
2021/06/12 07:40:30;;;;;;;;;2.00;2.00;;;;;26.80;49.33;101987.16;4975475;28;45507;-75
2021/06/12 07:42:55;;;;;;;;;3.00;2.00;;;;;27.13;49.10;101988.59;4975776;28;45605;-76
2021/06/12 07:45:21;;;;;;;;;2.50;2.00;;;;;27.93;48.13;101991.81;4975310;28;45506;-75
2021/06/12 07:47:46;;;;;;;;;1.50;1.50;;;;;28.48;46.88;101998.09;4974960;28;45578;-75
2021/06/12 07:50:13;;;;;;;;;3.00;3.00;;;;;28.64;46.14;101986.59;4974284;28;45488;-75
2021/06/12 07:52:39;;;;;;;;;1.50;1.50;;;;;28.91;46.05;101992.94;4976382;28;45485;-76
2021/06/12 07:55:05;;;;;;;;;2.00;2.00;;;;;29.11;45.59;102002.63;4975749;28;46144;-75
2021/06/12 07:57:31;;;;;;;;;3.00;1.75;;;;;29.73;44.97;101999.88;4975545;28;45653;-75
2021/06/12 07:59:56;;;;;;;;;1.00;1.00;;;;;30.18;43.62;101994.19;4975033;28;45304;-76
2021/06/12 08:02:21;;;;;;;;;2.25;2.25;;;;;30.47;43.32;102001.91;4974793;28;45471;-76
2021/06/12 08:04:47;;;;;;;;;2.00;2.00;;;;;31.10;42.46;102001.31;4976768;28;46295;-76
2021/06/12 08:07:13;;;;;;;;;2.00;2.00;;;;;32.17;41.26;101999.25;4974607;28;45335;-76
2021/06/12 08:09:38;;;;;;;;;3.50;2.00;;;;;33.45;40.38;101989.50;4974131;28;45483;-76
2021/06/12 08:12:05;;;;;;;;;3.00;3.00;;;;;35.45;38.73;101999.00;4973917;28;45423;-76
2021/06/12 08:14:30;;;;;;;;;2.25;1.25;;;;;37.10;35.91;101998.78;4975145;28;45335;-76
2021/06/12 08:16:55;;;;;;;;;1.25;1.25;;;;;38.14;34.26;102008.09;4982618;28;45422;-77
2021/06/12 08:19:21;;;;;;;;;2.50;2.50;;;;;39.35;32.68;102007.09;4975547;28;45518;-77
2021/06/12 08:21:46;;;;;;;;;3.50;1.50;;;;;39.65;31.71;102027.34;4974465;28;45917;-77
2021/06/12 08:24:12;;;;;;;;;4.25;2.75;;;;;39.77;31.22;102030.19;4974601;28;45545;-76
2021/06/12 08:26:37;;;;;;;;;2.00;2.00;;;;;39.50;30.58;102039.75;4973873;28;45586;-76
2021/06/12 08:29:03;;;;;;;;;2.75;1.00;;;;;39.38;31.16;102031.44;4975254;28;45416;-78
2021/06/12 08:31:29;;;;;;;;;2.00;1.25;;;;;39.14;29.79;102031.16;4974449;28;45407;-77
2021/06/12 08:33:54;;;;;;;;;2.50;2.50;;;;;39.55;30.31;102032.50;4974409;28;46250;-77
2021/06/12 08:36:20;;;;;;;;;2.25;1.25;;;;;41.74;29.45;102018.31;4972937;28;47387;-74
2021/06/12 08:38:45;;;;;;;;;2.50;2.50;;;;;43.95;27.19;102021.94;4974985;28;45411;-78
2021/06/12 08:41:11;;;;;;;;;3.00;2.00;;;;;45.28;25.57;102032.44;4974341;28;45671;-76
2021/06/12 08:43:37;;;;;;;;;3.75;3.75;;;;;45.99;24.55;102032.81;4975623;28;45313;-76
2021/06/12 08:46:03;;;;;;;;;6.00;3.00;;;;;46.98;23.64;102041.09;4973631;28;45605;-76
2021/06/12 08:48:28;;;;;;;;;1.25;1.00;;;;;48.37;22.92;102054.38;4974166;28;45815;-76
2021/06/12 08:50:54;;;;;;;;;3.50;3.50;;;;;48.28;21.55;102056.88;4974925;28;45481;-76
2021/06/12 08:53:20;;;;;;;;;2.00;2.00;;;;;45.98;22.38;102060.88;4975353;28;45439;-76
2021/06/12 08:55:46;;;;;;;;;0.75;0.75;;;;;43.60;22.53;102052.75;4975312;28;45406;-76
2021/06/12 08:58:13;;;;;;;;;3.00;2.50;;;;;41.58;24.31;102055.78;4975071;28;45401;-77
2021/06/12 09:00:39;;;;;;;;;2.25;2.25;;;;;40.93;26.08;102059.44;4974199;28;45613;-76
2021/06/12 09:03:06;;;;;;;;;2.00;2.00;;;;;40.64;25.83;102060.28;4974635;28;45558;-76
2021/06/12 09:05:40;;;;;;;;;3.00;3.00;;;;;40.41;25.99;102067.34;4974777;28;45700;-77
2021/06/12 09:08:06;;;;;;;;;3.00;3.00;;;;;40.17;26.05;102063.63;4971896;28;45395;-77
2021/06/12 09:10:32;;;;;;;;;2.25;1.75;;;;;39.41;26.62;102064.81;4975256;28;45673;-75
2021/06/12 09:12:59;;;;;;;;;3.75;3.75;;;;;40.33;26.54;102069.56;4976585;28;46877;-76
2021/06/12 09:15:26;;;;;;;;;3.75;3.75;;;;;43.09;25.67;102068.56;4975762;28;45488;-75
2021/06/12 09:17:51;;;;;;;;;5.50;4.25;;;;;45.53;23.68;102060.38;4974078;28;45489;-76
2021/06/12 09:20:36;;;;;;;;;5.50;4.50;;;;;47.04;21.47;102059.47;4974508;28;45492;-76
2021/06/12 09:23:18;;;;;;;;;4.00;4.00;;;;;47.99;21.46;102064.31;4989849;28;47276;-76
2021/06/12 09:25:46;;;;;;;;;3.25;3.25;;;;;46.96;20.66;102065.63;4975567;28;45535;-75
2021/06/12 09:28:12;;;;;;;;;5.50;4.25;;;;;46.25;21.70;102069.91;4975951;28;45424;-76
2021/06/12 09:30:37;;;;;;;;;5.75;5.75;;;;;45.79;21.77;102066.09;4973222;28;45984;-77
2021/06/12 09:33:03;;;;;;;;;5.75;5.00;;;;;45.71;21.83;102063.81;4971379;28;47191;-77
2021/06/12 09:35:42;;;;;;;;;8.00;7.25;;;;;45.83;21.72;102058.03;4972198;28;45466;-76
2021/06/12 09:38:24;;;;;;;;;8.25;8.25;;;;;45.96;21.64;102063.94;4974840;28;45679;-76
2021/06/12 09:40:49;;;;;;;;;6.25;4.75;;;;;46.11;21.83;102065.97;4976965;28;45529;-77
2021/06/12 09:43:28;;;;;;;;;9.50;6.25;;;;;46.15;21.32;102058.75;4973841;28;45463;-75
2021/06/12 09:45:54;;;;;;;;;6.00;6.00;;;;;45.90;21.81;102053.09;4970333;28;45628;-75
2021/06/12 09:48:20;;;;;;;;;7.50;7.00;;;;;45.80;21.82;102062.22;4971709;28;45881;-75
2021/06/12 09:50:47;;;;;;;;;9.50;7.00;;;;;45.93;21.55;102069.22;4969930;28;45829;-74
2021/06/12 09:53:14;;;;;;;;;5.00;4.75;;;;;45.94;21.06;102065.31;4971003;28;46853;-75
2021/06/12 09:55:39;;;;;;;;;6.00;5.50;;;;;45.86;21.61;102061.13;4971794;28;45490;-75
2021/06/12 09:58:05;;;;;;;;;8.50;7.25;;;;;45.73;21.47;102061.56;4971063;28;45455;-76
2021/06/12 10:00:44;;;;;;;;;6.25;5.75;;;;;45.28;21.38;102065.75;4970867;28;45424;-75
2021/06/12 10:03:24;;;;;;;;;11.00;8.00;;;;;44.76;21.38;102066.41;4985962;28;47528;-76
2021/06/12 10:06:11;;;;;;;;;9.75;6.75;;;;;43.84;21.73;102073.59;4970055;28;45719;-75
2021/06/12 10:08:38;;;;;;;;;7.75;5.25;;;;;42.79;22.33;102069.66;4968984;28;45444;-78
2021/06/12 10:11:04;;;;;;;;;8.50;8.00;;;;;42.06;23.44;102060.19;4974235;28;45526;-78
2021/06/12 10:13:30;;;;;;;;;9.75;7.25;;;;;41.35;23.68;102062.16;4975167;28;45405;-77
2021/06/12 10:15:56;;;;;;;;;6.00;6.00;;;;;40.71;24.68;102063.75;4981924;28;45551;-77
2021/06/12 10:18:22;;;;;;;;;8.00;6.75;;;;;40.27;25.32;102063.09;4979572;28;45455;-77
2021/06/12 10:20:48;;;;;;;;;9.75;9.75;;;;;40.03;25.32;102061.22;4977659;28;45399;-76
2021/06/12 10:23:15;;;;;;;;;7.25;7.25;;;;;39.61;25.57;102058.28;4978004;28;45606;-76
2021/06/12 10:25:41;;;;;;;;;5.50;4.25;;;;;39.23;26.38;102064.75;4977696;28;45410;-78
2021/06/12 10:28:07;;;;;;;;;9.00;9.00;;;;;38.89;26.22;102058.66;4978741;28;45486;-78
2021/06/12 10:30:34;;;;;;;;;9.75;7.75;;;;;38.57;26.85;102059.66;4978732;28;45462;-76
2021/06/12 10:32:59;;;;;;;;;10.00;7.25;;;;;38.12;26.86;102055.00;4977690;28;46365;-73
2021/06/12 10:35:26;;;;;;;;;8.00;7.50;;;;;37.91;26.50;102066.25;4978284;28;45352;-75
2021/06/12 10:38:02;;;;;;;;;8.25;6.75;;;;;37.26;27.46;102067.97;4979025;28;45501;-74
2021/06/12 10:40:38;;;;;;;;;8.50;8.50;;;;;36.75;27.79;102074.84;4979528;28;45415;-75
2021/06/12 10:43:09;;;;;;;;;11.00;9.00;;;;;36.61;28.94;102066.78;4977737;28;45623;-75
2021/06/12 10:45:34;;;;;;;;;8.50;8.50;;;;;36.48;28.84;102064.84;4977049;28;45457;-74
2021/06/12 10:48:00;;;;;;;;;6.75;6.25;;;;;36.01;28.87;102061.00;4975334;28;45612;-76
2021/06/12 10:50:25;;;;;;;;;26.75;24.25;;;;;35.67;29.85;102078.25;4974858;28;45553;-75
2021/06/12 10:52:52;;;;;;;;;11.67;7.33;;;;;35.25;29.33;102083.56;4976872;28;45355;-75
2021/06/12 10:55:42;;;;;;;;;8.25;7.00;;;;;35.04;30.04;102081.69;4975744;28;45312;-75
2021/06/12 10:58:29;;;;;;;;;8.75;6.00;;;;;34.78;31.21;102089.56;4976988;28;45358;-74
2021/06/12 11:01:06;;;;;;;;;8.50;6.00;;;;;34.59;31.15;102076.53;4977255;28;45390;-74
2021/06/12 11:09:13;;;;;;;;;4.00;4.00;;;;;34.44;32.07;102074.66;4976663;28;45516;-74
2021/06/12 11:11:51;;;;;;;;;5.00;3.00;;;;;34.58;31.53;102083.03;4974514;28;45518;-72
2021/06/12 11:14:25;;;;;;;;;4.75;4.75;;;;;34.64;31.50;102091.28;4974122;28;46567;-75
2021/06/12 11:17:10;;;;;;;;;4.25;4.25;;;;;34.45;31.35;102084.53;4991112;28;45387;-74
2021/06/12 11:19:40;;;;;;;;;4.00;4.00;;;;;34.04;31.27;102081.47;4977026;28;45453;-75
2021/06/12 11:22:26;;;;;;;;;3.00;3.00;;;;;33.79;32.09;102080.84;4976106;28;45407;-77
2021/06/12 11:25:06;;;;;;;;;3.00;3.00;;;;;33.60;31.57;102076.75;4990738;28;47243;-76
2021/06/12 11:27:34;;;;;;;;;3.50;3.00;;;;;33.54;32.58;102076.66;4976470;28;45510;-74
2021/06/12 11:30:16;;;;;;;;;5.25;4.25;;;;;33.46;32.62;102078.44;4975701;28;45670;-77
2021/06/12 11:32:47;;;;;;;;;3.00;3.00;;;;;33.32;32.44;102079.22;4975712;28;45437;-77